createdAt,value
2018-05-23T00:00:00.872Z,2.5
2018-05-23T00:03:00.831Z,2.5
2018-05-23T00:06:00.870Z,2.6
2018-05-23T00:09:00.767Z,2.6
2018-05-23T00:12:00.981Z,2.4
2018-05-23T00:15:00.804Z,2.5
2018-05-23T00:18:01.023Z,2.5
2018-05-23T00:21:00.831Z,2.5
2018-05-23T00:24:00.952Z,2.5
2018-05-23T00:27:00.759Z,2.7
2018-05-23T00:30:01.002Z,2.7
2018-05-23T00:33:00.681Z,3.2
2018-05-23T00:36:00.729Z,3.3
2018-05-23T00:39:00.686Z,2.3
2018-05-23T00:42:00.757Z,2.5
2018-05-23T00:45:00.833Z,2.4
2018-05-23T00:48:00.759Z,2.5
2018-05-23T00:51:00.941Z,2.5
2018-05-23T00:54:00.823Z,3.1
2018-05-23T00:57:00.834Z,2.4
2018-05-23T01:00:00.867Z,2.1
2018-05-23T01:03:00.599Z,2.6
2018-05-23T01:06:00.873Z,2.5
2018-05-23T01:09:00.824Z,2.6
2018-05-23T01:12:00.741Z,2.5
2018-05-23T01:15:00.855Z,2.4
2018-05-23T01:18:00.774Z,2.4
2018-05-23T01:21:00.754Z,2.4
2018-05-23T01:24:00.881Z,2.4
2018-05-23T01:27:00.910Z,2.2
2018-05-23T01:30:00.856Z,2.6
2018-05-23T01:33:00.941Z,2.4
2018-05-23T01:36:00.912Z,2.5
2018-05-23T01:39:00.895Z,2.4
2018-05-23T01:42:00.759Z,2.4
2018-05-23T01:45:00.631Z,2.6
2018-05-23T01:48:01.001Z,2.5
2018-05-23T01:51:00.666Z,3
2018-05-23T01:54:00.685Z,3
2018-05-23T01:57:00.759Z,2.4
2018-05-23T02:00:00.917Z,2.4
2018-05-23T02:03:00.672Z,2.8
2018-05-23T02:06:01.053Z,2.5
2018-05-23T02:09:00.676Z,2.6
2018-05-23T02:12:00.693Z,2.6
2018-05-23T02:15:01.036Z,2.6
2018-05-23T02:18:00.849Z,2.5
2018-05-23T02:21:00.667Z,2.3
2018-05-23T02:24:00.799Z,2.3
2018-05-23T02:27:00.846Z,2.4
2018-05-23T02:30:00.702Z,2.5
2018-05-23T02:33:00.965Z,2.5
2018-05-23T02:36:00.771Z,2.5
2018-05-23T02:39:00.816Z,2.4
2018-05-23T02:42:00.804Z,2.5
2018-05-23T02:45:00.834Z,2.2
2018-05-23T02:48:00.717Z,2.4
2018-05-23T02:51:00.692Z,2.3
2018-05-23T02:54:00.755Z,2.3
2018-05-23T02:57:00.706Z,2.3
2018-05-23T03:00:00.697Z,2.3
2018-05-23T03:03:01.852Z,2.5
2018-05-23T03:06:00.655Z,2.5
2018-05-23T03:09:00.785Z,2.5
2018-05-23T03:12:00.902Z,2.4
2018-05-23T03:15:00.668Z,2.4
2018-05-23T03:18:00.828Z,2.3
2018-05-23T03:21:00.746Z,2.1
2018-05-23T03:24:00.618Z,2.4
2018-05-23T03:27:00.794Z,2.1
2018-05-23T03:30:00.782Z,2.4
2018-05-23T03:33:00.653Z,2.4
2018-05-23T03:36:00.847Z,2.3
2018-05-23T03:39:00.919Z,2.3
2018-05-23T03:42:00.725Z,2.3
2018-05-23T03:45:00.775Z,2.3
2018-05-23T03:48:00.851Z,2.4
2018-05-23T03:51:10.658Z,2.3
2018-05-23T03:54:00.801Z,2.3
2018-05-23T03:57:00.658Z,2.2
2018-05-23T04:00:00.735Z,2.3
2018-05-23T04:03:00.589Z,2.1
2018-05-23T04:06:00.847Z,2.4
2018-05-23T04:09:00.670Z,2.2
2018-05-23T04:12:00.612Z,2.2
2018-05-23T04:15:00.707Z,2.3
2018-05-23T04:18:00.704Z,2.3
2018-05-23T04:21:10.638Z,2.2
2018-05-23T04:24:01.168Z,2.6
2018-05-23T04:27:00.779Z,2.1
2018-05-23T04:30:00.812Z,2.1
2018-05-23T04:33:00.718Z,2.4
2018-05-23T04:36:00.730Z,2.4
2018-05-23T04:39:00.792Z,2.3
2018-05-23T04:42:00.673Z,2.4
2018-05-23T04:45:00.664Z,2.4
2018-05-23T04:48:00.677Z,2.2
2018-05-23T04:51:00.588Z,2.1
2018-05-23T04:54:00.852Z,2.4
2018-05-23T04:57:00.845Z,2.3
2018-05-23T05:00:00.826Z,2.2
2018-05-23T05:03:00.856Z,2.1
2018-05-23T05:06:00.785Z,2.2
2018-05-23T05:09:00.594Z,2.2
2018-05-23T05:12:00.797Z,2.3
2018-05-23T05:15:00.862Z,2.4
2018-05-23T05:18:00.650Z,2.3
2018-05-23T05:21:00.844Z,2.2
2018-05-23T05:24:00.801Z,2.1
2018-05-23T05:27:00.590Z,2.5
2018-05-23T05:30:00.655Z,2.4
2018-05-23T05:33:00.856Z,2.2
2018-05-23T05:36:00.600Z,2.5
2018-05-23T05:39:00.773Z,2.3
2018-05-23T05:42:00.690Z,2.3
2018-05-23T05:45:00.527Z,2.4
2018-05-23T05:48:00.657Z,2.3
2018-05-23T05:51:00.597Z,2.4
2018-05-23T05:54:00.557Z,2.3
2018-05-23T05:57:00.728Z,2.3
2018-05-23T06:00:00.877Z,2.4
2018-05-23T06:03:00.612Z,2.5
2018-05-23T06:06:00.879Z,2.3
2018-05-23T06:09:00.640Z,2.4
2018-05-23T06:12:00.743Z,2.1
2018-05-23T06:15:00.637Z,2.4
2018-05-23T06:18:00.694Z,2.4
2018-05-23T06:21:00.584Z,2.2
2018-05-23T06:24:00.653Z,2.2
2018-05-23T06:27:00.818Z,2.5
2018-05-23T06:30:00.525Z,2.3
2018-05-23T06:33:00.707Z,2.5
2018-05-23T06:36:00.644Z,2.3
2018-05-23T06:39:00.523Z,2.6
2018-05-23T06:42:00.756Z,2.3
2018-05-23T06:45:00.938Z,2.4
2018-05-23T06:48:00.578Z,2.4
2018-05-23T06:51:00.698Z,2.4
2018-05-23T06:54:00.608Z,2.4
2018-05-23T06:57:00.628Z,5
2018-05-23T07:00:00.836Z,3.8
2018-05-23T07:03:00.787Z,2.8
2018-05-23T07:06:00.570Z,3
2018-05-23T07:09:00.572Z,2.8
2018-05-23T07:12:00.719Z,2.5
2018-05-23T07:15:00.602Z,2.5
2018-05-23T07:18:02.257Z,2.5
2018-05-23T07:21:00.756Z,2.5
2018-05-23T07:24:00.969Z,3.2
2018-05-23T07:27:00.918Z,2.5
2018-05-23T07:30:00.652Z,2.6
2018-05-23T07:33:00.612Z,2.4
2018-05-23T07:36:00.739Z,3.3
2018-05-23T07:39:00.859Z,2.5
2018-05-23T07:42:00.587Z,2.6
2018-05-23T07:45:00.816Z,2.6
2018-05-23T07:48:00.686Z,3
2018-05-23T07:51:00.631Z,2.9
2018-05-23T07:54:00.761Z,2.5
2018-05-23T07:57:00.753Z,2.6
2018-05-23T08:00:00.516Z,3.7
2018-05-23T08:03:00.740Z,2.7
2018-05-23T08:06:00.601Z,2.4
2018-05-23T08:09:00.564Z,2.6
2018-05-23T08:12:00.672Z,2.4
2018-05-23T08:15:00.675Z,2.7
2018-05-23T08:18:00.529Z,4.3
2018-05-23T08:21:00.613Z,2.4
2018-05-23T08:24:00.920Z,2.9
2018-05-23T08:27:00.517Z,2.8
2018-05-23T08:30:00.573Z,2.8
2018-05-23T08:33:00.622Z,2.5
2018-05-23T08:36:00.545Z,2.8
2018-05-23T08:39:00.930Z,2.5
2018-05-23T08:42:00.693Z,2.4
2018-05-23T08:45:00.693Z,2.6
2018-05-23T08:48:00.736Z,2.5
2018-05-23T08:51:00.760Z,2.7
2018-05-23T08:54:00.952Z,2.7
2018-05-23T08:57:00.658Z,2.5
2018-05-23T09:00:00.592Z,2.6
2018-05-23T09:03:00.686Z,2.6
2018-05-23T09:06:00.726Z,2.6
2018-05-23T09:09:00.606Z,2.5
2018-05-23T09:12:00.608Z,2.8
2018-05-23T09:15:00.616Z,3.1
2018-05-23T09:18:00.512Z,2.7
2018-05-23T09:21:00.559Z,2.5
2018-05-23T09:24:00.607Z,2.7
2018-05-23T09:27:00.715Z,2.9
2018-05-23T09:30:00.783Z,3.4
2018-05-23T09:33:00.632Z,2.6
2018-05-23T09:36:00.811Z,2.4
2018-05-23T09:39:00.570Z,3.3
2018-05-23T09:42:00.731Z,2.6
2018-05-23T09:45:00.936Z,2.6
2018-05-23T09:48:00.729Z,2.4
2018-05-23T09:51:00.608Z,2.5
2018-05-23T09:54:00.891Z,2.5
2018-05-23T09:57:00.654Z,2.6
2018-05-23T10:00:00.695Z,2.5
2018-05-23T10:03:00.793Z,2.4
2018-05-23T10:06:00.818Z,2.4
2018-05-23T10:09:00.545Z,2.3
2018-05-23T10:12:00.633Z,2.6
2018-05-23T10:15:00.641Z,2.4
2018-05-23T10:18:00.589Z,2.5
2018-05-23T10:21:00.556Z,2.6
2018-05-23T10:24:00.849Z,2.4
2018-05-23T10:27:00.723Z,2.8
2018-05-23T10:30:00.623Z,2.6
2018-05-23T10:33:00.598Z,3.1
2018-05-23T10:36:00.817Z,2.6
2018-05-23T10:39:01.306Z,2.6
2018-05-23T10:42:00.693Z,2.6
2018-05-23T10:45:00.692Z,2.4
2018-05-23T10:48:00.556Z,2.4
2018-05-23T10:51:00.616Z,2.3
2018-05-23T10:54:00.528Z,2.7
2018-05-23T10:57:01.033Z,2.4
2018-05-23T11:00:00.630Z,2.5
2018-05-23T11:03:01.878Z,2.3
2018-05-23T11:06:01.667Z,2.3
2018-05-23T11:09:01.489Z,2.3
2018-05-23T11:12:00.984Z,2.7
2018-05-23T11:15:01.103Z,2.1
2018-05-23T11:18:00.726Z,2.3
2018-05-23T11:21:00.561Z,2.3
2018-05-23T11:24:00.786Z,2.3
2018-05-23T11:27:00.688Z,2.4
2018-05-23T11:30:00.744Z,2.4
2018-05-23T11:33:00.691Z,2.5
2018-05-23T11:36:00.538Z,2.4
2018-05-23T11:39:00.465Z,2.4
2018-05-23T11:42:00.643Z,2.4
2018-05-23T11:45:00.515Z,2.4
2018-05-23T11:48:00.611Z,2.3
2018-05-23T11:51:00.619Z,2.3
2018-05-23T11:54:00.721Z,2.1
2018-05-23T11:57:00.513Z,2.3
2018-05-23T12:00:00.700Z,2.4
2018-05-23T12:03:00.537Z,2.3
2018-05-23T12:06:00.631Z,2.5
2018-05-23T12:09:00.696Z,2
2018-05-23T12:12:00.525Z,2.2
2018-05-23T12:15:00.492Z,2.2
2018-05-23T12:18:00.545Z,2.3
2018-05-23T12:21:00.558Z,2.3
2018-05-23T12:24:00.573Z,2.2
2018-05-23T12:27:00.718Z,2.1
2018-05-23T12:30:00.693Z,2.4
2018-05-23T12:33:00.566Z,2.4
2018-05-23T12:36:00.636Z,2.3
2018-05-23T12:39:00.638Z,2.3
2018-05-23T12:42:00.582Z,2.4
2018-05-23T12:45:00.476Z,2.4
2018-05-23T12:48:00.754Z,2.5
2018-05-23T12:51:00.589Z,2.2
2018-05-23T12:54:00.768Z,2.2
2018-05-23T12:57:00.609Z,2.5
2018-05-23T13:00:00.519Z,2.4
2018-05-23T13:03:00.695Z,2.3
2018-05-23T13:06:00.710Z,2.4
2018-05-23T13:09:00.607Z,2.2
2018-05-23T13:12:00.529Z,2.4
2018-05-23T13:15:00.622Z,2.4
2018-05-23T13:18:01.466Z,2.3
2018-05-23T13:21:00.475Z,2.4
2018-05-23T13:24:00.561Z,2.4
2018-05-23T13:27:00.651Z,2.4
2018-05-23T13:30:00.627Z,2.4
2018-05-23T13:33:00.742Z,2.4
2018-05-23T13:36:00.632Z,2.3
2018-05-23T13:39:01.882Z,2.3
2018-05-23T13:42:00.643Z,2.5
2018-05-23T13:45:00.499Z,2.3
2018-05-23T13:48:00.489Z,3.9
2018-05-23T13:51:00.561Z,3.8
2018-05-23T13:54:00.628Z,3
2018-05-23T13:57:00.648Z,2.3
2018-05-23T14:00:00.649Z,2.5
2018-05-23T14:03:00.448Z,2.4
2018-05-23T14:06:00.515Z,2.3
2018-05-23T14:09:00.575Z,2.5
2018-05-23T14:12:10.507Z,2.5
2018-05-23T14:15:00.502Z,2.7
2018-05-23T14:18:00.649Z,2.8
2018-05-23T14:21:00.675Z,2.8
2018-05-23T14:24:00.483Z,2.5
2018-05-23T14:27:00.493Z,3.5
2018-05-23T14:30:00.651Z,2.8
2018-05-23T14:33:00.550Z,2.6
2018-05-23T14:36:00.701Z,2.7
2018-05-23T14:39:00.745Z,2.5
2018-05-23T14:42:00.470Z,2.7
2018-05-23T14:45:00.597Z,2.7
2018-05-23T14:48:00.542Z,2.8
2018-05-23T14:51:00.645Z,2.7
2018-05-23T14:54:01.089Z,2.7
2018-05-23T14:57:00.701Z,2.7
2018-05-23T15:00:00.643Z,2.6
2018-05-23T15:03:00.543Z,2.6
2018-05-23T15:06:00.524Z,2.9
2018-05-23T15:09:00.713Z,2.7
2018-05-23T15:12:00.509Z,2.6
2018-05-23T15:15:00.395Z,2.5
2018-05-23T15:18:00.587Z,2.8
2018-05-23T15:21:00.608Z,3.6
2018-05-23T15:24:00.571Z,2.8
2018-05-23T15:27:00.473Z,2.7
2018-05-23T15:30:00.425Z,2.7
2018-05-23T15:33:00.414Z,2.7
2018-05-23T15:36:00.666Z,2.6
2018-05-23T15:39:00.565Z,2.6
2018-05-23T15:42:00.519Z,2.7
2018-05-23T15:45:00.523Z,2.6
2018-05-23T15:48:00.554Z,2.6
2018-05-23T15:51:01.024Z,2.6
2018-05-23T15:54:00.724Z,2.8
2018-05-23T15:57:01.907Z,2.5
2018-05-23T16:00:00.585Z,2.6
2018-05-23T16:03:01.266Z,2.6
2018-05-23T16:06:00.704Z,2.6
2018-05-23T16:09:00.590Z,2.5
2018-05-23T16:12:00.602Z,2.7
2018-05-23T16:15:00.593Z,2.6
2018-05-23T16:18:00.789Z,2.5
2018-05-23T16:21:00.635Z,2.5
2018-05-23T16:24:00.501Z,2.7
2018-05-23T16:27:00.586Z,2.5
2018-05-23T16:30:00.682Z,2.5
2018-05-23T16:33:00.379Z,2.6
2018-05-23T16:36:00.506Z,2.6
2018-05-23T16:39:00.580Z,2.4
2018-05-23T16:42:00.396Z,2.5
2018-05-23T16:45:00.708Z,2.6
2018-05-23T16:48:00.632Z,2.5
2018-05-23T16:51:00.388Z,2.5
2018-05-23T16:54:00.456Z,2.5
2018-05-23T16:57:00.600Z,2.5
2018-05-23T17:00:01.515Z,2.5
2018-05-23T17:03:00.575Z,2.6
2018-05-23T17:06:00.493Z,2.7
2018-05-23T17:09:00.692Z,2.8
2018-05-23T17:12:00.414Z,2.6
2018-05-23T17:15:00.636Z,2.6
2018-05-23T17:18:00.626Z,2.7
2018-05-23T17:21:00.663Z,2.7
2018-05-23T17:24:00.641Z,2.5
2018-05-23T17:27:05.480Z,2.7
2018-05-23T17:30:00.586Z,2.7
2018-05-23T17:33:00.582Z,2.9
2018-05-23T17:36:00.486Z,2.6
2018-05-23T17:39:00.581Z,2.8
2018-05-23T17:42:00.458Z,2.7
2018-05-23T17:45:00.451Z,2.8
2018-05-23T17:48:00.719Z,2.6
2018-05-23T17:51:00.569Z,2.6
2018-05-23T17:54:00.402Z,2.6
2018-05-23T17:57:01.288Z,2.6
2018-05-23T18:00:00.611Z,2.9
2018-05-23T18:03:00.409Z,2.7
2018-05-23T18:06:01.968Z,5.6
2018-05-23T18:09:00.593Z,2.8
2018-05-23T18:12:00.468Z,2.7
2018-05-23T18:15:00.689Z,2.7
2018-05-23T18:18:00.363Z,3.4
2018-05-23T18:21:00.416Z,3.8
2018-05-23T18:24:00.544Z,3.4
2018-05-23T18:27:00.493Z,3.6
2018-05-23T18:30:00.389Z,3.9
2018-05-23T18:33:00.678Z,2.6
2018-05-23T18:36:00.412Z,3
2018-05-23T18:39:00.380Z,2.7
2018-05-23T18:42:00.457Z,2.7
2018-05-23T18:45:00.447Z,2.7
2018-05-23T18:48:00.369Z,3.5
2018-05-23T18:51:00.538Z,2.8
2018-05-23T18:54:00.571Z,5.4
2018-05-23T18:57:00.617Z,4.8
2018-05-23T19:00:00.580Z,7
2018-05-23T19:03:00.491Z,11.6
2018-05-23T19:06:00.453Z,10
2018-05-23T19:09:00.425Z,15.2
2018-05-23T19:12:00.516Z,7.9
2018-05-23T19:15:00.387Z,13.4
2018-05-23T19:18:00.405Z,15.3
2018-05-23T19:21:00.489Z,7.8
2018-05-23T19:24:00.456Z,10.3
2018-05-23T19:27:00.521Z,5.2
2018-05-23T19:30:00.452Z,7.8
2018-05-23T19:33:00.448Z,8.4
2018-05-23T19:36:00.562Z,8.2
2018-05-23T19:39:00.515Z,8.3
2018-05-23T19:42:00.460Z,5.5
2018-05-23T19:45:00.369Z,4.5
2018-05-23T19:48:00.663Z,8
2018-05-23T19:51:00.416Z,4.9
2018-05-23T19:54:00.612Z,5.4
2018-05-23T19:57:00.386Z,3.7
2018-05-23T20:00:00.782Z,4.9
2018-05-23T20:03:01.061Z,5.8
2018-05-23T20:06:00.575Z,8.9
2018-05-23T20:09:00.367Z,5.5
2018-05-23T20:12:00.595Z,8
2018-05-23T20:15:00.455Z,6.4
2018-05-23T20:18:00.395Z,5.7
2018-05-23T20:21:00.352Z,9
2018-05-23T20:24:00.471Z,3.9
2018-05-23T20:27:00.388Z,6.2
2018-05-23T20:30:00.566Z,4.9
2018-05-23T20:33:00.474Z,6.4
2018-05-23T20:36:00.450Z,4.6
2018-05-23T20:39:00.405Z,5
2018-05-23T20:42:00.355Z,8.6
2018-05-23T20:45:00.569Z,4.9
2018-05-23T20:48:00.531Z,4.4
2018-05-23T20:51:00.371Z,5.6
2018-05-23T20:54:00.358Z,6.3
2018-05-23T20:57:00.468Z,3.7
2018-05-23T21:00:00.524Z,3.7
2018-05-23T21:03:00.502Z,3.3
2018-05-23T21:06:00.498Z,4.7
2018-05-23T21:09:00.745Z,4
2018-05-23T21:12:00.403Z,6
2018-05-23T21:15:00.351Z,4.7
2018-05-23T21:18:00.483Z,4.4
2018-05-23T21:21:00.541Z,5.8
2018-05-23T21:24:00.526Z,5.8
2018-05-23T21:27:00.553Z,3.5
2018-05-23T21:30:00.658Z,4.5
2018-05-23T21:33:00.362Z,4.2
2018-05-23T21:36:00.446Z,4.7
2018-05-23T21:39:00.360Z,5.2
2018-05-23T21:42:00.308Z,4.1
2018-05-23T21:45:00.391Z,3.6
2018-05-23T21:48:00.534Z,3.1
2018-05-23T21:51:00.332Z,4.3
2018-05-23T21:54:00.540Z,3.1
2018-05-23T21:57:01.147Z,2.9
2018-05-23T22:00:01.116Z,3.1
2018-05-23T22:03:01.206Z,3.3
2018-05-23T22:06:01.097Z,3.2
2018-05-23T22:09:01.190Z,3.3
2018-05-23T22:12:01.002Z,2.9
2018-05-23T22:15:01.184Z,3.4
2018-05-23T22:18:01.282Z,3
2018-05-23T22:21:02.426Z,3.7
2018-05-23T22:24:00.683Z,3.2
2018-05-23T22:27:00.589Z,3
2018-05-23T22:30:00.688Z,3
2018-05-23T22:33:01.169Z,3.2
2018-05-23T22:36:01.876Z,3.2
2018-05-23T22:39:00.598Z,3.2
2018-05-23T22:42:00.587Z,3
2018-05-23T22:45:00.621Z,2.9
2018-05-23T22:48:01.095Z,3.1
2018-05-23T22:51:02.319Z,3.1
2018-05-23T22:54:00.522Z,2.9
2018-05-23T22:57:00.412Z,3
2018-05-23T23:00:00.310Z,2.9
2018-05-23T23:03:00.491Z,3.1
2018-05-23T23:06:00.450Z,3.3
2018-05-23T23:09:00.754Z,3.3
2018-05-23T23:12:00.394Z,3
2018-05-23T23:15:00.418Z,3.3
2018-05-23T23:18:00.513Z,3
2018-05-23T23:21:00.304Z,3.1
2018-05-23T23:24:00.495Z,3.6
2018-05-23T23:27:00.495Z,3.1
2018-05-23T23:30:00.360Z,3.2
2018-05-23T23:33:00.428Z,3.2
2018-05-23T23:36:00.460Z,3.2
2018-05-23T23:39:00.434Z,3.6
2018-05-23T23:42:00.465Z,3.9
2018-05-23T23:45:00.415Z,3.2
2018-05-23T23:48:00.333Z,2.8
2018-05-23T23:51:00.350Z,3
2018-05-23T23:54:00.657Z,2.8
2018-05-23T23:57:02.239Z,2.8
